sensor_id;sensor_type;location;lat;lon;timestamp;pressure;altitude;pressure_sealevel;temperature;humidity
26178;BME280;13924;47.670;10.310;2024-02-21T00:00:38;94790;;;2.3;100.0
26178;BME280;13924;47.670;10.310;2024-02-21T00:15:38;94840;;;2.2;100.0
26178;BME280;13924;47.670;10.310;2024-02-21T00:30:39;94820;;;2.1;100.0
26178;BME280;13924;47.670;10.310;2024-02-21T00:45:40;94810;;;1.9;100.0
26178;BME280;13924;47.670;10.310;2024-02-21T01:00:40;94830;;;2.3;100.0
26178;BME280;13924;47.670;10.310;2024-02-21T01:15:42;94760;;;1.8;100.0
26178;BME280;13924;47.670;10.310;2024-02-21T01:30:42;94760;;;1.9;100.0
26178;BME280;13924;47.670;10.310;2024-02-21T01:45:48;94750;;;1.6;100.0
26178;BME280;13924;47.670;10.310;2024-02-21T02:00:44;94740;;;1.5;100.0
26178;BME280;13924;47.670;10.310;2024-02-21T02:01:29;94740;;;1.5;100.0
26178;BME280;13924;47.670;10.310;2024-02-21T02:15:49;94720;;;1.5;100.0
26178;BME280;13924;47.670;10.310;2024-02-21T02:30:47;94750;;;1.5;100.0
26178;BME280;13924;47.670;10.310;2024-02-21T02:45:45;94680;;;1.5;100.0
26178;BME280;13924;47.670;10.310;2024-02-21T03:00:45;94650;;;1.4;100.0
26178;BME280;13924;47.670;10.310;2024-02-21T03:15:54;94650;;;1.4;100.0
26178;BME280;13924;47.670;10.310;2024-02-21T03:30:47;94610;;;1.4;100.0
26178;BME280;13924;47.670;10.310;2024-02-21T04:00:50;94600;;;1.3;100.0
26178;BME280;13924;47.670;10.310;2024-02-21T04:15:49;94600;;;1.1;100.0
26178;BME280;13924;47.670;10.310;2024-02-21T04:30:50;94580;;;1.2;100.0
26178;BME280;13924;47.670;10.310;2024-02-21T04:45:50;94540;;;1.1;100.0
26178;BME280;13924;47.670;10.310;2024-02-21T05:00:51;94470;;;1.3;100.0
26178;BME280;13924;47.670;10.310;2024-02-21T05:15:52;94490;;;1.2;100.0
26178;BME280;13924;47.670;10.310;2024-02-21T05:30:53;94470;;;1.2;100.0
26178;BME280;13924;47.670;10.310;2024-02-21T05:45:53;94450;;;1.1;100.0
26178;BME280;13924;47.670;10.310;2024-02-21T06:00:54;94410;;;1.1;100.0
26178;BME280;13924;47.670;10.310;2024-02-21T06:12:53;94320;;;1.5;100.0
26178;BME280;13924;47.670;10.310;2024-02-21T06:27:54;94200;;;1.6;100.0
26178;BME280;13924;47.670;10.310;2024-02-21T06:42:57;94210;;;1.6;100.0
26178;BME280;13924;47.670;10.310;2024-02-21T06:57:54;94250;;;1.4;100.0
26178;BME280;13924;47.670;10.310;2024-02-21T07:12:54;94310;;;1.3;100.0
26178;BME280;13924;47.670;10.310;2024-02-21T07:27:56;94150;;;1.8;100.0
26178;BME280;13924;47.670;10.310;2024-02-21T07:42:56;94080;;;2.1;100.0
26178;BME280;13924;47.670;10.310;2024-02-21T07:57:57;93990;;;2.7;100.0
26178;BME280;13924;47.670;10.310;2024-02-21T08:12:58;93910;;;3.4;100.0
26178;BME280;13924;47.670;10.310;2024-02-21T08:27:59;93830;;;3.7;100.0
26178;BME280;13924;47.670;10.310;2024-02-21T08:42:59;93840;;;4.1;100.0
26178;BME280;13924;47.670;10.310;2024-02-21T08:58:01;93780;;;4.5;100.0
26178;BME280;13924;47.670;10.310;2024-02-21T09:13:00;93770;;;5.1;100.0
26178;BME280;13924;47.670;10.310;2024-02-21T09:28:02;93770;;;5.4;100.0
26178;BME280;13924;47.670;10.310;2024-02-21T09:43:03;93770;;;6.2;100.0
26178;BME280;13924;47.670;10.310;2024-02-21T09:58:02;93750;;;6.9;100.0
26178;BME280;13924;47.670;10.310;2024-02-21T10:13:03;93720;;;7.5;100.0
26178;BME280;13924;47.670;10.310;2024-02-21T10:28:04;93690;;;8.0;100.0
26178;BME280;13924;47.670;10.310;2024-02-21T10:43:05;93670;;;8.6;100.0
26178;BME280;13924;47.670;10.310;2024-02-21T10:58:06;93650;;;9.7;100.0
26178;BME280;13924;47.670;10.310;2024-02-21T11:13:07;93610;;;10.1;100.0
26178;BME280;13924;47.670;10.310;2024-02-21T11:28:07;93590;;;10.8;100.0
26178;BME280;13924;47.670;10.310;2024-02-21T11:43:06;93550;;;11.6;100.0
26178;BME280;13924;47.670;10.310;2024-02-21T11:58:08;93520;;;13.1;100.0
26178;BME280;13924;47.670;10.310;2024-02-21T12:13:08;93490;;;12.6;100.0
26178;BME280;13924;47.670;10.310;2024-02-21T12:28:09;93460;;;12.8;100.0
26178;BME280;13924;47.670;10.310;2024-02-21T12:43:09;93430;;;12.2;100.0
26178;BME280;13924;47.670;10.310;2024-02-21T12:58:10;93410;;;12.4;100.0
26178;BME280;13924;47.670;10.310;2024-02-21T13:13:10;93380;;;14.4;82.5
26178;BME280;13924;47.670;10.310;2024-02-21T13:28:11;93350;;;13.9;74.8
26178;BME280;13924;47.670;10.310;2024-02-21T13:43:12;93320;;;13.2;90.3
26178;BME280;13924;47.670;10.310;2024-02-21T13:58:13;93300;;;13.4;87.3
26178;BME280;13924;47.670;10.310;2024-02-21T14:13:13;93290;;;12.9;90.1
26178;BME280;13924;47.670;10.310;2024-02-21T14:28:13;93270;;;12.3;100.0
26178;BME280;13924;47.670;10.310;2024-02-21T14:43:15;93250;;;11.4;100.0
26178;BME280;13924;47.670;10.310;2024-02-21T14:58:15;93240;;;11.0;100.0
26178;BME280;13924;47.670;10.310;2024-02-21T15:13:16;93220;;;10.4;100.0
26178;BME280;13924;47.670;10.310;2024-02-21T15:28:17;93220;;;10.2;100.0
26178;BME280;13924;47.670;10.310;2024-02-21T15:43:18;93220;;;10.0;100.0
26178;BME280;13924;47.670;10.310;2024-02-21T15:58:18;93210;;;9.7;100.0
26178;BME280;13924;47.670;10.310;2024-02-21T16:13:19;93200;;;9.4;100.0
26178;BME280;13924;47.670;10.310;2024-02-21T16:28:20;93200;;;9.4;100.0
26178;BME280;13924;47.670;10.310;2024-02-21T16:43:21;93190;;;9.2;100.0
26178;BME280;13924;47.670;10.310;2024-02-21T16:58:21;93180;;;9.0;100.0
26178;BME280;13924;47.670;10.310;2024-02-21T17:13:21;93170;;;8.7;100.0
26178;BME280;13924;47.670;10.310;2024-02-21T17:28:22;93160;;;9.0;100.0
26178;BME280;13924;47.670;10.310;2024-02-21T17:43:23;93130;;;9.2;100.0
26178;BME280;13924;47.670;10.310;2024-02-21T17:58:24;93120;;;8.8;100.0
26178;BME280;13924;47.670;10.310;2024-02-21T18:13:25;93100;;;8.6;100.0
26178;BME280;13924;47.670;10.310;2024-02-21T18:28:25;93100;;;7.9;100.0
26178;BME280;13924;47.670;10.310;2024-02-21T18:43:26;93080;;;8.1;100.0
26178;BME280;13924;47.670;10.310;2024-02-21T18:58:30;93070;;;8.2;100.0
26178;BME280;13924;47.670;10.310;2024-02-21T19:13:34;93070;;;8.2;100.0
26178;BME280;13924;47.670;10.310;2024-02-21T19:28:32;93070;;;7.6;100.0
26178;BME280;13924;47.670;10.310;2024-02-21T19:43:33;93070;;;7.5;100.0
26178;BME280;13924;47.670;10.310;2024-02-21T19:58:33;93120;;;7.1;100.0
26178;BME280;13924;47.670;10.310;2024-02-21T20:14:01;93120;;;7.1;100.0
26178;BME280;13924;47.670;10.310;2024-02-21T20:28:35;93030;;;7.3;100.0
26178;BME280;13924;47.670;10.310;2024-02-21T20:43:35;93020;;;7.2;100.0
26178;BME280;13924;47.670;10.310;2024-02-21T20:58:36;92990;;;7.3;100.0
26178;BME280;13924;47.670;10.310;2024-02-21T21:13:42;92970;;;7.3;100.0
26178;BME280;13924;47.670;10.310;2024-02-21T21:28:37;92960;;;7.2;100.0
26178;BME280;13924;47.670;10.310;2024-02-21T21:43:41;92960;;;7.2;100.0
26178;BME280;13924;47.670;10.310;2024-02-21T21:58:39;92950;;;7.1;100.0
26178;BME280;13924;47.670;10.310;2024-02-21T22:13:41;92960;;;7.0;100.0
26178;BME280;13924;47.670;10.310;2024-02-21T22:28:40;92930;;;7.1;100.0
26178;BME280;13924;47.670;10.310;2024-02-21T22:43:41;92940;;;6.8;100.0
26178;BME280;13924;47.670;10.310;2024-02-21T22:58:42;92910;;;6.9;100.0
26178;BME280;13924;47.670;10.310;2024-02-21T23:00:40;92910;;;7.0;100.0
26178;BME280;13924;47.670;10.310;2024-02-21T23:15:35;92840;;;7.2;100.0
26178;BME280;13924;47.670;10.310;2024-02-21T23:30:36;92780;;;7.6;100.0
26178;BME280;13924;47.670;10.310;2024-02-21T23:45:36;92750;;;7.4;100.0
